sensor_id;sensor_type;location;lat;lon;timestamp;temperature;humidity
14401;DHT22;7285;50.894;5.462;2023-04-26T00:00:50;1.90;1.00
14401;DHT22;7285;50.894;5.462;2023-04-26T00:03:18;1.80;1.00
14401;DHT22;7285;50.894;5.462;2023-04-26T00:05:44;1.80;1.00
14401;DHT22;7285;50.894;5.462;2023-04-26T00:08:12;1.70;1.00
14401;DHT22;7285;50.894;5.462;2023-04-26T00:10:38;1.70;1.00
14401;DHT22;7285;50.894;5.462;2023-04-26T00:13:07;1.60;1.00
14401;DHT22;7285;50.894;5.462;2023-04-26T00:15:34;1.60;1.00
14401;DHT22;7285;50.894;5.462;2023-04-26T00:18:01;1.50;1.00
14401;DHT22;7285;50.894;5.462;2023-04-26T00:20:28;1.50;1.00
14401;DHT22;7285;50.894;5.462;2023-04-26T00:22:55;1.50;99.90
14401;DHT22;7285;50.894;5.462;2023-04-26T00:25:22;1.50;99.90
14401;DHT22;7285;50.894;5.462;2023-04-26T00:27:51;1.60;99.90
14401;DHT22;7285;50.894;5.462;2023-04-26T00:30:20;1.60;1.00
14401;DHT22;7285;50.894;5.462;2023-04-26T00:32:47;1.60;1.00
14401;DHT22;7285;50.894;5.462;2023-04-26T00:35:14;1.60;1.00
14401;DHT22;7285;50.894;5.462;2023-04-26T00:37:41;1.60;1.00
14401;DHT22;7285;50.894;5.462;2023-04-26T00:40:08;1.60;1.00
14401;DHT22;7285;50.894;5.462;2023-04-26T00:42:37;1.60;1.00
14401;DHT22;7285;50.894;5.462;2023-04-26T00:45:05;1.50;1.00
14401;DHT22;7285;50.894;5.462;2023-04-26T00:47:33;1.50;1.00
14401;DHT22;7285;50.894;5.462;2023-04-26T00:50:01;1.50;1.00
14401;DHT22;7285;50.894;5.462;2023-04-26T00:52:29;1.40;1.00
14401;DHT22;7285;50.894;5.462;2023-04-26T00:54:57;1.30;1.00
14401;DHT22;7285;50.894;5.462;2023-04-26T00:57:24;1.30;1.00
14401;DHT22;7285;50.894;5.462;2023-04-26T00:59:51;1.20;1.00
14401;DHT22;7285;50.894;5.462;2023-04-26T01:02:18;1.30;1.00
14401;DHT22;7285;50.894;5.462;2023-04-26T01:04:46;1.30;25.50
14401;DHT22;7285;50.894;5.462;2023-04-26T01:07:14;1.30;99.90
14401;DHT22;7285;50.894;5.462;2023-04-26T01:09:41;1.20;1.00
14401;DHT22;7285;50.894;5.462;2023-04-26T01:12:08;1.30;1.00
14401;DHT22;7285;50.894;5.462;2023-04-26T01:14:36;1.30;1.00
14401;DHT22;7285;50.894;5.462;2023-04-26T01:17:03;1.20;1.00
14401;DHT22;7285;50.894;5.462;2023-04-26T01:19:31;1.20;1.00
14401;DHT22;7285;50.894;5.462;2023-04-26T01:21:59;1.20;1.00
14401;DHT22;7285;50.894;5.462;2023-04-26T01:24:27;1.10;1.00
14401;DHT22;7285;50.894;5.462;2023-04-26T01:26:54;1.10;62.10
14401;DHT22;7285;50.894;5.462;2023-04-26T01:29:21;1.20;99.90
14401;DHT22;7285;50.894;5.462;2023-04-26T01:31:48;1.10;99.90
14401;DHT22;7285;50.894;5.462;2023-04-26T01:34:15;1.10;91.40
14401;DHT22;7285;50.894;5.462;2023-04-26T01:36:42;1.00;1.00
14401;DHT22;7285;50.894;5.462;2023-04-26T01:39:09;1.00;1.00
14401;DHT22;7285;50.894;5.462;2023-04-26T01:41:38;0.90;1.00
14401;DHT22;7285;50.894;5.462;2023-04-26T01:44:05;0.80;1.00
14401;DHT22;7285;50.894;5.462;2023-04-26T01:46:32;0.80;18.60
14401;DHT22;7285;50.894;5.462;2023-04-26T01:48:59;0.80;99.90
14401;DHT22;7285;50.894;5.462;2023-04-26T01:51:26;0.90;1.00
14401;DHT22;7285;50.894;5.462;2023-04-26T01:53:53;0.90;1.00
14401;DHT22;7285;50.894;5.462;2023-04-26T01:56:22;0.90;1.00
14401;DHT22;7285;50.894;5.462;2023-04-26T01:58:51;0.90;1.00
14401;DHT22;7285;50.894;5.462;2023-04-26T02:01:20;0.80;1.00
14401;DHT22;7285;50.894;5.462;2023-04-26T02:03:46;0.90;77.40
14401;DHT22;7285;50.894;5.462;2023-04-26T02:06:14;0.90;99.90
14401;DHT22;7285;50.894;5.462;2023-04-26T02:08:41;0.80;41.70
14401;DHT22;7285;50.894;5.462;2023-04-26T02:11:08;0.80;1.00
14401;DHT22;7285;50.894;5.462;2023-04-26T02:13:35;0.70;1.00
14401;DHT22;7285;50.894;5.462;2023-04-26T02:16:03;0.70;1.00
14401;DHT22;7285;50.894;5.462;2023-04-26T02:18:32;0.70;1.00
14401;DHT22;7285;50.894;5.462;2023-04-26T02:20:59;0.80;1.00
14401;DHT22;7285;50.894;5.462;2023-04-26T02:23:26;0.70;1.00
14401;DHT22;7285;50.894;5.462;2023-04-26T02:25:53;0.50;1.00
14401;DHT22;7285;50.894;5.462;2023-04-26T02:28:19;0.50;99.90
14401;DHT22;7285;50.894;5.462;2023-04-26T02:30:46;0.50;1.00
14401;DHT22;7285;50.894;5.462;2023-04-26T02:33:15;0.50;1.00
14401;DHT22;7285;50.894;5.462;2023-04-26T02:35:42;0.50;1.00
14401;DHT22;7285;50.894;5.462;2023-04-26T02:38:09;0.50;1.00
14401;DHT22;7285;50.894;5.462;2023-04-26T02:40:36;0.50;1.00
14401;DHT22;7285;50.894;5.462;2023-04-26T02:43:03;0.50;99.80
14401;DHT22;7285;50.894;5.462;2023-04-26T02:45:31;0.50;99.90
14401;DHT22;7285;50.894;5.462;2023-04-26T02:47:57;0.50;99.90
14401;DHT22;7285;50.894;5.462;2023-04-26T02:50:26;0.50;99.90
14401;DHT22;7285;50.894;5.462;2023-04-26T02:52:53;0.50;99.90
14401;DHT22;7285;50.894;5.462;2023-04-26T02:55:20;0.50;99.90
14401;DHT22;7285;50.894;5.462;2023-04-26T02:57:47;0.40;99.90
14401;DHT22;7285;50.894;5.462;2023-04-26T03:00:14;0.40;1.00
14401;DHT22;7285;50.894;5.462;2023-04-26T03:02:41;0.40;1.00
14401;DHT22;7285;50.894;5.462;2023-04-26T03:05:08;0.40;1.00
14401;DHT22;7285;50.894;5.462;2023-04-26T03:07:37;0.30;1.00
14401;DHT22;7285;50.894;5.462;2023-04-26T03:10:05;0.30;1.00
14401;DHT22;7285;50.894;5.462;2023-04-26T03:12:36;0.20;99.90
14401;DHT22;7285;50.894;5.462;2023-04-26T03:15:03;0.20;99.90
14401;DHT22;7285;50.894;5.462;2023-04-26T03:17:30;0.10;99.90
14401;DHT22;7285;50.894;5.462;2023-04-26T03:19:57;0.00;99.90
14401;DHT22;7285;50.894;5.462;2023-04-26T03:22:24;0.10;1.00
14401;DHT22;7285;50.894;5.462;2023-04-26T03:24:52;0.10;1.00
14401;DHT22;7285;50.894;5.462;2023-04-26T03:27:19;0.10;1.00
14401;DHT22;7285;50.894;5.462;2023-04-26T03:29:46;0.10;1.00
14401;DHT22;7285;50.894;5.462;2023-04-26T03:32:13;0.10;21.00
14401;DHT22;7285;50.894;5.462;2023-04-26T03:34:40;0.10;99.90
14401;DHT22;7285;50.894;5.462;2023-04-26T03:37:07;0.10;52.80
14401;DHT22;7285;50.894;5.462;2023-04-26T03:39:34;0.00;99.90
14401;DHT22;7285;50.894;5.462;2023-04-26T03:42:02;0.10;99.90
14401;DHT22;7285;50.894;5.462;2023-04-26T03:44:29;0.10;99.90
14401;DHT22;7285;50.894;5.462;2023-04-26T03:46:57;0.10;99.90
14401;DHT22;7285;50.894;5.462;2023-04-26T03:49:24;0.10;1.00
14401;DHT22;7285;50.894;5.462;2023-04-26T03:51:51;0.10;1.00
14401;DHT22;7285;50.894;5.462;2023-04-26T03:54:18;0.10;1.00
14401;DHT22;7285;50.894;5.462;2023-04-26T03:56:44;0.10;1.00
14401;DHT22;7285;50.894;5.462;2023-04-26T03:59:13;0.10;1.00
14401;DHT22;7285;50.894;5.462;2023-04-26T04:01:40;0.10;1.00
14401;DHT22;7285;50.894;5.462;2023-04-26T04:04:07;0.10;1.00
14401;DHT22;7285;50.894;5.462;2023-04-26T04:06:34;0.00;1.00
14401;DHT22;7285;50.894;5.462;2023-04-26T04:09:01;0.10;1.00
14401;DHT22;7285;50.894;5.462;2023-04-26T04:11:28;0.00;1.00
14401;DHT22;7285;50.894;5.462;2023-04-26T04:13:55;0.00;1.00
14401;DHT22;7285;50.894;5.462;2023-04-26T04:16:23;0.00;1.00
14401;DHT22;7285;50.894;5.462;2023-04-26T04:18:50;0.00;1.00
14401;DHT22;7285;50.894;5.462;2023-04-26T04:21:17;0.00;1.00
14401;DHT22;7285;50.894;5.462;2023-04-26T04:23:44;0.00;1.00
14401;DHT22;7285;50.894;5.462;2023-04-26T04:26:11;0.00;1.00
14401;DHT22;7285;50.894;5.462;2023-04-26T04:28:39;0.10;99.90
14401;DHT22;7285;50.894;5.462;2023-04-26T04:31:06;0.00;99.90
14401;DHT22;7285;50.894;5.462;2023-04-26T04:33:35;0.10;99.90
14401;DHT22;7285;50.894;5.462;2023-04-26T04:36:03;0.10;99.90
14401;DHT22;7285;50.894;5.462;2023-04-26T04:38:31;0.10;99.90
14401;DHT22;7285;50.894;5.462;2023-04-26T04:40:58;0.10;69.70
14401;DHT22;7285;50.894;5.462;2023-04-26T04:43:25;0.00;1.00
14401;DHT22;7285;50.894;5.462;2023-04-26T04:45:52;0.00;76.80
14401;DHT22;7285;50.894;5.462;2023-04-26T04:48:20;0.10;99.90
14401;DHT22;7285;50.894;5.462;2023-04-26T04:50:48;0.10;99.90
14401;DHT22;7285;50.894;5.462;2023-04-26T04:53:15;0.10;99.90
14401;DHT22;7285;50.894;5.462;2023-04-26T04:55:42;0.10;99.90
14401;DHT22;7285;50.894;5.462;2023-04-26T04:58:09;0.20;1.00
14401;DHT22;7285;50.894;5.462;2023-04-26T05:00:37;0.20;1.00
14401;DHT22;7285;50.894;5.462;2023-04-26T05:03:04;0.10;99.90
14401;DHT22;7285;50.894;5.462;2023-04-26T05:05:34;0.20;99.90
14401;DHT22;7285;50.894;5.462;2023-04-26T05:08:02;0.10;1.00
14401;DHT22;7285;50.894;5.462;2023-04-26T05:10:32;0.10;1.00
14401;DHT22;7285;50.894;5.462;2023-04-26T05:12:59;0.20;1.00
14401;DHT22;7285;50.894;5.462;2023-04-26T05:15:26;0.20;1.00
14401;DHT22;7285;50.894;5.462;2023-04-26T05:17:53;0.20;1.00
14401;DHT22;7285;50.894;5.462;2023-04-26T05:20:20;0.30;1.00
14401;DHT22;7285;50.894;5.462;2023-04-26T05:22:47;0.30;1.00
14401;DHT22;7285;50.894;5.462;2023-04-26T05:25:16;0.40;22.30
14401;DHT22;7285;50.894;5.462;2023-04-26T05:27:43;0.40;92.70
14401;DHT22;7285;50.894;5.462;2023-04-26T05:30:11;0.60;99.90
14401;DHT22;7285;50.894;5.462;2023-04-26T05:32:38;0.60;99.90
14401;DHT22;7285;50.894;5.462;2023-04-26T05:35:06;0.70;99.90
14401;DHT22;7285;50.894;5.462;2023-04-26T05:37:33;0.80;99.90
14401;DHT22;7285;50.894;5.462;2023-04-26T05:40:01;0.80;99.90
14401;DHT22;7285;50.894;5.462;2023-04-26T05:42:30;1.00;99.90
14401;DHT22;7285;50.894;5.462;2023-04-26T05:44:57;1.00;99.90
14401;DHT22;7285;50.894;5.462;2023-04-26T05:47:24;1.10;99.90
14401;DHT22;7285;50.894;5.462;2023-04-26T05:49:51;1.30;1.00
14401;DHT22;7285;50.894;5.462;2023-04-26T05:52:18;1.40;99.90
14401;DHT22;7285;50.894;5.462;2023-04-26T05:54:46;1.50;99.90
14401;DHT22;7285;50.894;5.462;2023-04-26T05:57:12;1.60;99.90
14401;DHT22;7285;50.894;5.462;2023-04-26T05:59:41;1.70;99.90
14401;DHT22;7285;50.894;5.462;2023-04-26T06:02:08;1.80;1.70
14401;DHT22;7285;50.894;5.462;2023-04-26T06:04:34;1.90;1.00
14401;DHT22;7285;50.894;5.462;2023-04-26T06:07:01;2.00;1.00
14401;DHT22;7285;50.894;5.462;2023-04-26T06:09:30;2.10;1.00
14401;DHT22;7285;50.894;5.462;2023-04-26T06:11:58;2.20;1.00
14401;DHT22;7285;50.894;5.462;2023-04-26T06:14:24;2.40;1.00
14401;DHT22;7285;50.894;5.462;2023-04-26T06:16:53;2.50;99.90
14401;DHT22;7285;50.894;5.462;2023-04-26T06:19:20;2.60;99.90
14401;DHT22;7285;50.894;5.462;2023-04-26T06:21:46;2.80;1.00
14401;DHT22;7285;50.894;5.462;2023-04-26T06:24:14;3.00;1.00
14401;DHT22;7285;50.894;5.462;2023-04-26T06:26:41;3.20;99.90
14401;DHT22;7285;50.894;5.462;2023-04-26T06:29:08;3.30;99.90
14401;DHT22;7285;50.894;5.462;2023-04-26T06:31:35;3.50;1.00
14401;DHT22;7285;50.894;5.462;2023-04-26T06:34:03;3.70;99.90
14401;DHT22;7285;50.894;5.462;2023-04-26T06:36:30;3.90;1.00
14401;DHT22;7285;50.894;5.462;2023-04-26T06:38:57;4.00;1.00
14401;DHT22;7285;50.894;5.462;2023-04-26T06:41:24;4.10;1.00
14401;DHT22;7285;50.894;5.462;2023-04-26T06:43:51;4.20;99.90
14401;DHT22;7285;50.894;5.462;2023-04-26T06:46:18;4.20;22.40
14401;DHT22;7285;50.894;5.462;2023-04-26T06:48:45;4.50;1.00
14401;DHT22;7285;50.894;5.462;2023-04-26T06:51:13;4.60;1.00
14401;DHT22;7285;50.894;5.462;2023-04-26T06:53:41;4.60;99.90
14401;DHT22;7285;50.894;5.462;2023-04-26T06:56:08;4.70;1.00
14401;DHT22;7285;50.894;5.462;2023-04-26T06:58:35;4.80;1.00
14401;DHT22;7285;50.894;5.462;2023-04-26T07:01:02;5.00;1.00
14401;DHT22;7285;50.894;5.462;2023-04-26T07:03:30;5.10;1.00
14401;DHT22;7285;50.894;5.462;2023-04-26T07:05:58;5.20;1.00
14401;DHT22;7285;50.894;5.462;2023-04-26T07:08:27;5.40;1.00
14401;DHT22;7285;50.894;5.462;2023-04-26T07:10:54;5.60;99.90
14401;DHT22;7285;50.894;5.462;2023-04-26T07:13:21;5.80;10.40
14401;DHT22;7285;50.894;5.462;2023-04-26T07:15:48;5.90;1.00
14401;DHT22;7285;50.894;5.462;2023-04-26T07:18:15;5.80;1.00
14401;DHT22;7285;50.894;5.462;2023-04-26T07:20:42;6.00;1.00
14401;DHT22;7285;50.894;5.462;2023-04-26T07:23:09;6.10;1.00
14401;DHT22;7285;50.894;5.462;2023-04-26T07:25:37;6.20;1.00
14401;DHT22;7285;50.894;5.462;2023-04-26T07:28:04;6.30;99.90
14401;DHT22;7285;50.894;5.462;2023-04-26T07:30:31;6.30;99.90
14401;DHT22;7285;50.894;5.462;2023-04-26T07:32:58;6.40;99.90
14401;DHT22;7285;50.894;5.462;2023-04-26T07:35:25;6.60;99.90
14401;DHT22;7285;50.894;5.462;2023-04-26T07:37:52;6.60;68.90
14401;DHT22;7285;50.894;5.462;2023-04-26T07:40:19;6.70;1.00
14401;DHT22;7285;50.894;5.462;2023-04-26T07:42:48;6.90;1.00
14401;DHT22;7285;50.894;5.462;2023-04-26T07:45:15;7.00;1.00
14401;DHT22;7285;50.894;5.462;2023-04-26T07:47:43;7.10;1.00
14401;DHT22;7285;50.894;5.462;2023-04-26T07:50:10;7.10;99.90
14401;DHT22;7285;50.894;5.462;2023-04-26T07:52:37;7.20;99.90
14401;DHT22;7285;50.894;5.462;2023-04-26T07:55:05;7.20;99.90
14401;DHT22;7285;50.894;5.462;2023-04-26T07:57:32;7.30;99.90
14401;DHT22;7285;50.894;5.462;2023-04-26T08:00:00;7.20;99.90
14401;DHT22;7285;50.894;5.462;2023-04-26T08:02:28;7.20;97.80
14401;DHT22;7285;50.894;5.462;2023-04-26T08:04:54;7.00;1.00
14401;DHT22;7285;50.894;5.462;2023-04-26T08:07:22;7.00;1.00
14401;DHT22;7285;50.894;5.462;2023-04-26T08:09:49;7.00;1.00
14401;DHT22;7285;50.894;5.462;2023-04-26T08:12:16;7.30;1.00
14401;DHT22;7285;50.894;5.462;2023-04-26T08:14:43;7.50;1.00
14401;DHT22;7285;50.894;5.462;2023-04-26T08:17:12;7.50;1.00
14401;DHT22;7285;50.894;5.462;2023-04-26T08:19:39;7.70;1.00
14401;DHT22;7285;50.894;5.462;2023-04-26T08:22:06;7.50;1.00
14401;DHT22;7285;50.894;5.462;2023-04-26T08:24:33;7.60;1.00
14401;DHT22;7285;50.894;5.462;2023-04-26T08:27:00;7.90;1.00
14401;DHT22;7285;50.894;5.462;2023-04-26T08:29:27;8.30;1.00
14401;DHT22;7285;50.894;5.462;2023-04-26T08:31:54;8.60;99.90
14401;DHT22;7285;50.894;5.462;2023-04-26T08:34:22;8.60;99.90
14401;DHT22;7285;50.894;5.462;2023-04-26T08:36:49;8.50;99.90
14401;DHT22;7285;50.894;5.462;2023-04-26T08:39:16;8.70;99.90
14401;DHT22;7285;50.894;5.462;2023-04-26T08:41:48;8.80;99.90
14401;DHT22;7285;50.894;5.462;2023-04-26T08:44:16;8.90;99.90
14401;DHT22;7285;50.894;5.462;2023-04-26T08:46:49;8.90;97.60
14401;DHT22;7285;50.894;5.462;2023-04-26T08:49:25;9.20;99.90
14401;DHT22;7285;50.894;5.462;2023-04-26T08:51:57;9.40;26.10
14401;DHT22;7285;50.894;5.462;2023-04-26T08:54:25;9.40;1.00
14401;DHT22;7285;50.894;5.462;2023-04-26T08:56:53;9.60;1.00
14401;DHT22;7285;50.894;5.462;2023-04-26T08:59:22;9.60;1.00
14401;DHT22;7285;50.894;5.462;2023-04-26T09:01:49;9.60;1.00
14401;DHT22;7285;50.894;5.462;2023-04-26T09:04:16;9.60;1.00
14401;DHT22;7285;50.894;5.462;2023-04-26T09:06:45;9.80;1.00
14401;DHT22;7285;50.894;5.462;2023-04-26T09:09:12;9.90;1.00
14401;DHT22;7285;50.894;5.462;2023-04-26T09:11:53;9.50;1.00
14401;DHT22;7285;50.894;5.462;2023-04-26T09:14:21;9.70;1.00
14401;DHT22;7285;50.894;5.462;2023-04-26T09:16:48;10.10;1.00
14401;DHT22;7285;50.894;5.462;2023-04-26T09:19:16;10.10;1.00
14401;DHT22;7285;50.894;5.462;2023-04-26T09:21:45;10.30;1.00
14401;DHT22;7285;50.894;5.462;2023-04-26T09:24:13;10.10;1.00
14401;DHT22;7285;50.894;5.462;2023-04-26T09:26:40;9.80;1.00
14401;DHT22;7285;50.894;5.462;2023-04-26T09:29:12;10.20;1.00
14401;DHT22;7285;50.894;5.462;2023-04-26T09:31:42;10.70;1.00
14401;DHT22;7285;50.894;5.462;2023-04-26T09:34:10;10.80;1.00
14401;DHT22;7285;50.894;5.462;2023-04-26T09:36:49;10.50;1.00
14401;DHT22;7285;50.894;5.462;2023-04-26T09:39:29;10.00;1.00
14401;DHT22;7285;50.894;5.462;2023-04-26T09:41:57;10.20;1.00
14401;DHT22;7285;50.894;5.462;2023-04-26T09:44:24;10.50;1.00
14401;DHT22;7285;50.894;5.462;2023-04-26T09:47:00;10.60;1.00
14401;DHT22;7285;50.894;5.462;2023-04-26T09:49:27;10.90;1.00
14401;DHT22;7285;50.894;5.462;2023-04-26T09:52:05;11.20;1.00
14401;DHT22;7285;50.894;5.462;2023-04-26T09:54:40;11.70;1.00
14401;DHT22;7285;50.894;5.462;2023-04-26T09:57:08;12.20;1.00
14401;DHT22;7285;50.894;5.462;2023-04-26T09:59:43;12.50;1.00
14401;DHT22;7285;50.894;5.462;2023-04-26T10:02:14;12.20;1.00
14401;DHT22;7285;50.894;5.462;2023-04-26T10:04:44;12.40;1.00
14401;DHT22;7285;50.894;5.462;2023-04-26T10:07:14;12.80;1.00
14401;DHT22;7285;50.894;5.462;2023-04-26T10:09:42;12.80;1.00
14401;DHT22;7285;50.894;5.462;2023-04-26T10:12:10;13.10;1.00
14401;DHT22;7285;50.894;5.462;2023-04-26T10:14:37;13.60;1.00
14401;DHT22;7285;50.894;5.462;2023-04-26T10:17:04;13.00;1.00
14401;DHT22;7285;50.894;5.462;2023-04-26T10:19:33;12.30;1.00
14401;DHT22;7285;50.894;5.462;2023-04-26T10:22:04;11.90;1.00
14401;DHT22;7285;50.894;5.462;2023-04-26T10:24:33;11.80;1.00
14401;DHT22;7285;50.894;5.462;2023-04-26T10:27:00;11.80;1.00
14401;DHT22;7285;50.894;5.462;2023-04-26T10:32:32;12.00;1.00
14401;DHT22;7285;50.894;5.462;2023-04-26T10:35:09;12.40;1.00
14401;DHT22;7285;50.894;5.462;2023-04-26T10:37:38;12.80;1.00
14401;DHT22;7285;50.894;5.462;2023-04-26T10:40:28;13.20;1.00
14401;DHT22;7285;50.894;5.462;2023-04-26T10:43:28;13.40;1.00
14401;DHT22;7285;50.894;5.462;2023-04-26T10:46:32;13.40;1.00
14401;DHT22;7285;50.894;5.462;2023-04-26T10:49:12;13.40;1.00
14401;DHT22;7285;50.894;5.462;2023-04-26T10:51:39;13.20;1.00
14401;DHT22;7285;50.894;5.462;2023-04-26T10:54:08;13.40;1.00
14401;DHT22;7285;50.894;5.462;2023-04-26T10:56:51;13.40;1.00
14401;DHT22;7285;50.894;5.462;2023-04-26T10:59:20;13.50;1.00
14401;DHT22;7285;50.894;5.462;2023-04-26T11:01:47;13.10;1.00
14401;DHT22;7285;50.894;5.462;2023-04-26T11:04:14;13.50;1.00
14401;DHT22;7285;50.894;5.462;2023-04-26T11:06:47;14.00;1.00
14401;DHT22;7285;50.894;5.462;2023-04-26T11:09:33;14.00;1.00
14401;DHT22;7285;50.894;5.462;2023-04-26T11:12:05;14.10;1.00
14401;DHT22;7285;50.894;5.462;2023-04-26T11:14:32;14.40;1.00
14401;DHT22;7285;50.894;5.462;2023-04-26T11:17:02;14.30;1.00
14401;DHT22;7285;50.894;5.462;2023-04-26T11:19:30;14.30;1.00
14401;DHT22;7285;50.894;5.462;2023-04-26T11:21:58;14.10;1.00
14401;DHT22;7285;50.894;5.462;2023-04-26T11:24:25;14.30;1.00
14401;DHT22;7285;50.894;5.462;2023-04-26T11:26:53;14.20;1.00
14401;DHT22;7285;50.894;5.462;2023-04-26T11:29:21;13.90;1.00
14401;DHT22;7285;50.894;5.462;2023-04-26T11:31:52;14.10;1.00
14401;DHT22;7285;50.894;5.462;2023-04-26T11:34:20;14.40;99.90
14401;DHT22;7285;50.894;5.462;2023-04-26T11:36:50;14.10;99.90
14401;DHT22;7285;50.894;5.462;2023-04-26T11:39:19;14.10;99.90
14401;DHT22;7285;50.894;5.462;2023-04-26T11:41:47;14.10;99.90
14401;DHT22;7285;50.894;5.462;2023-04-26T11:44:17;14.10;99.90
14401;DHT22;7285;50.894;5.462;2023-04-26T11:46:47;14.40;99.90
14401;DHT22;7285;50.894;5.462;2023-04-26T11:49:15;14.40;99.90
14401;DHT22;7285;50.894;5.462;2023-04-26T11:51:45;14.40;99.90
14401;DHT22;7285;50.894;5.462;2023-04-26T11:54:26;14.90;99.90
14401;DHT22;7285;50.894;5.462;2023-04-26T11:56:53;15.50;99.90
14401;DHT22;7285;50.894;5.462;2023-04-26T11:59:23;15.40;99.90
14401;DHT22;7285;50.894;5.462;2023-04-26T12:01:51;15.30;99.90
14401;DHT22;7285;50.894;5.462;2023-04-26T12:04:18;15.80;1.00
14401;DHT22;7285;50.894;5.462;2023-04-26T12:06:52;15.60;99.90
14401;DHT22;7285;50.894;5.462;2023-04-26T12:09:21;15.50;1.00
14401;DHT22;7285;50.894;5.462;2023-04-26T12:11:52;16.00;1.00
14401;DHT22;7285;50.894;5.462;2023-04-26T12:14:22;16.50;1.00
14401;DHT22;7285;50.894;5.462;2023-04-26T12:16:52;16.20;1.00
14401;DHT22;7285;50.894;5.462;2023-04-26T12:19:22;16.50;1.00
14401;DHT22;7285;50.894;5.462;2023-04-26T12:21:49;16.90;99.90
14401;DHT22;7285;50.894;5.462;2023-04-26T12:24:24;16.90;99.90
14401;DHT22;7285;50.894;5.462;2023-04-26T12:26:54;16.80;99.90
14401;DHT22;7285;50.894;5.462;2023-04-26T12:29:21;16.80;99.90
14401;DHT22;7285;50.894;5.462;2023-04-26T12:31:48;16.30;99.90
14401;DHT22;7285;50.894;5.462;2023-04-26T12:34:16;16.20;99.90
14401;DHT22;7285;50.894;5.462;2023-04-26T12:36:43;16.00;99.90
14401;DHT22;7285;50.894;5.462;2023-04-26T12:39:10;15.90;99.90
14401;DHT22;7285;50.894;5.462;2023-04-26T12:41:37;15.70;99.90
14401;DHT22;7285;50.894;5.462;2023-04-26T12:44:04;15.80;99.90
14401;DHT22;7285;50.894;5.462;2023-04-26T12:46:32;15.90;99.90
14401;DHT22;7285;50.894;5.462;2023-04-26T12:48:59;16.00;99.90
14401;DHT22;7285;50.894;5.462;2023-04-26T12:51:27;16.30;99.90
14401;DHT22;7285;50.894;5.462;2023-04-26T12:53:57;16.60;99.90
14401;DHT22;7285;50.894;5.462;2023-04-26T12:56:24;16.90;99.90
14401;DHT22;7285;50.894;5.462;2023-04-26T12:58:51;17.10;99.90
14401;DHT22;7285;50.894;5.462;2023-04-26T13:01:18;17.20;99.90
14401;DHT22;7285;50.894;5.462;2023-04-26T13:03:45;17.20;99.90
14401;DHT22;7285;50.894;5.462;2023-04-26T13:06:12;17.10;99.90
14401;DHT22;7285;50.894;5.462;2023-04-26T13:08:40;17.40;99.90
14401;DHT22;7285;50.894;5.462;2023-04-26T13:11:07;17.20;99.90
14401;DHT22;7285;50.894;5.462;2023-04-26T13:13:34;17.60;99.90
14401;DHT22;7285;50.894;5.462;2023-04-26T13:16:01;18.20;99.90
14401;DHT22;7285;50.894;5.462;2023-04-26T13:18:28;18.10;99.90
14401;DHT22;7285;50.894;5.462;2023-04-26T13:20:55;17.60;99.90
14401;DHT22;7285;50.894;5.462;2023-04-26T13:23:22;17.70;99.90
14401;DHT22;7285;50.894;5.462;2023-04-26T13:25:50;17.20;99.90
14401;DHT22;7285;50.894;5.462;2023-04-26T13:28:17;17.20;99.90
14401;DHT22;7285;50.894;5.462;2023-04-26T13:30:44;17.70;99.90
14401;DHT22;7285;50.894;5.462;2023-04-26T13:33:12;17.70;99.90
14401;DHT22;7285;50.894;5.462;2023-04-26T13:35:39;17.20;99.90
14401;DHT22;7285;50.894;5.462;2023-04-26T13:38:06;17.50;99.90
14401;DHT22;7285;50.894;5.462;2023-04-26T13:40:32;17.00;99.90
14401;DHT22;7285;50.894;5.462;2023-04-26T13:43:01;17.00;99.90
14401;DHT22;7285;50.894;5.462;2023-04-26T13:45:28;16.80;99.90
14401;DHT22;7285;50.894;5.462;2023-04-26T13:47:55;16.50;99.90
14401;DHT22;7285;50.894;5.462;2023-04-26T13:50:22;16.80;99.90
14401;DHT22;7285;50.894;5.462;2023-04-26T13:52:49;16.70;99.90
14401;DHT22;7285;50.894;5.462;2023-04-26T13:55:17;16.10;99.90
14401;DHT22;7285;50.894;5.462;2023-04-26T13:57:44;16.30;99.90
14401;DHT22;7285;50.894;5.462;2023-04-26T14:00:14;16.50;99.90
14401;DHT22;7285;50.894;5.462;2023-04-26T14:02:41;16.40;99.90
14401;DHT22;7285;50.894;5.462;2023-04-26T14:05:08;16.90;99.90
14401;DHT22;7285;50.894;5.462;2023-04-26T14:07:35;16.70;99.90
14401;DHT22;7285;50.894;5.462;2023-04-26T14:10:02;16.10;99.90
14401;DHT22;7285;50.894;5.462;2023-04-26T14:12:29;16.20;99.90
14401;DHT22;7285;50.894;5.462;2023-04-26T14:14:56;16.00;99.90
14401;DHT22;7285;50.894;5.462;2023-04-26T14:17:24;16.00;99.90
14401;DHT22;7285;50.894;5.462;2023-04-26T14:19:53;16.00;99.90
14401;DHT22;7285;50.894;5.462;2023-04-26T14:22:20;16.10;99.90
14401;DHT22;7285;50.894;5.462;2023-04-26T14:24:48;16.10;99.90
14401;DHT22;7285;50.894;5.462;2023-04-26T14:27:14;16.10;99.90
14401;DHT22;7285;50.894;5.462;2023-04-26T14:29:42;16.20;99.90
14401;DHT22;7285;50.894;5.462;2023-04-26T14:32:08;16.60;99.90
14401;DHT22;7285;50.894;5.462;2023-04-26T14:34:37;16.60;99.90
14401;DHT22;7285;50.894;5.462;2023-04-26T14:37:05;16.90;99.90
14401;DHT22;7285;50.894;5.462;2023-04-26T14:39:32;17.00;99.90
14401;DHT22;7285;50.894;5.462;2023-04-26T14:41:59;17.10;99.90
14401;DHT22;7285;50.894;5.462;2023-04-26T14:44:26;16.90;99.90
14401;DHT22;7285;50.894;5.462;2023-04-26T14:46:53;16.60;99.90
14401;DHT22;7285;50.894;5.462;2023-04-26T14:49:20;16.80;99.90
14401;DHT22;7285;50.894;5.462;2023-04-26T14:51:49;17.00;99.90
14401;DHT22;7285;50.894;5.462;2023-04-26T14:54:16;16.90;99.90
14401;DHT22;7285;50.894;5.462;2023-04-26T14:56:43;17.10;99.90
14401;DHT22;7285;50.894;5.462;2023-04-26T14:59:10;17.00;99.90
14401;DHT22;7285;50.894;5.462;2023-04-26T15:01:37;17.20;99.90
14401;DHT22;7285;50.894;5.462;2023-04-26T15:04:04;17.30;99.90
14401;DHT22;7285;50.894;5.462;2023-04-26T15:06:31;16.90;99.90
14401;DHT22;7285;50.894;5.462;2023-04-26T15:09:00;16.80;99.90
14401;DHT22;7285;50.894;5.462;2023-04-26T15:11:27;17.20;99.90
14401;DHT22;7285;50.894;5.462;2023-04-26T15:13:54;17.50;99.90
14401;DHT22;7285;50.894;5.462;2023-04-26T15:16:21;16.80;99.90
14401;DHT22;7285;50.894;5.462;2023-04-26T15:18:47;16.90;99.90
14401;DHT22;7285;50.894;5.462;2023-04-26T15:21:18;17.00;99.90
14401;DHT22;7285;50.894;5.462;2023-04-26T15:23:45;17.60;99.90
14401;DHT22;7285;50.894;5.462;2023-04-26T15:26:13;17.80;99.90
14401;DHT22;7285;50.894;5.462;2023-04-26T15:28:40;18.30;99.90
14401;DHT22;7285;50.894;5.462;2023-04-26T15:31:08;18.40;99.90
14401;DHT22;7285;50.894;5.462;2023-04-26T15:33:36;18.20;99.90
14401;DHT22;7285;50.894;5.462;2023-04-26T15:36:03;18.50;99.90
14401;DHT22;7285;50.894;5.462;2023-04-26T15:38:32;18.40;99.90
14401;DHT22;7285;50.894;5.462;2023-04-26T15:40:59;18.60;99.90
14401;DHT22;7285;50.894;5.462;2023-04-26T15:43:27;18.50;99.90
14401;DHT22;7285;50.894;5.462;2023-04-26T15:45:54;18.20;99.90
14401;DHT22;7285;50.894;5.462;2023-04-26T15:48:21;17.40;99.90
14401;DHT22;7285;50.894;5.462;2023-04-26T15:50:50;16.60;99.90
14401;DHT22;7285;50.894;5.462;2023-04-26T15:53:18;16.30;99.90
14401;DHT22;7285;50.894;5.462;2023-04-26T15:55:46;15.80;99.90
14401;DHT22;7285;50.894;5.462;2023-04-26T15:58:13;15.60;99.90
14401;DHT22;7285;50.894;5.462;2023-04-26T16:00:41;15.10;99.90
14401;DHT22;7285;50.894;5.462;2023-04-26T16:03:08;14.70;99.90
14401;DHT22;7285;50.894;5.462;2023-04-26T16:05:35;14.90;99.90
14401;DHT22;7285;50.894;5.462;2023-04-26T16:08:02;15.70;99.90
14401;DHT22;7285;50.894;5.462;2023-04-26T16:10:30;16.30;99.90